THY5RM LTFM-GMMN
Flight info
| Callsign | THY5RM |
|---|---|
| Flight time | N/A |
| Altitude | 40000 |
| Route | BARPE1E/36 BARPE UM603 TSL UM600 KRK UL869 LATAN/N0479F410 DCT TUPAL/N0475F400 UG728 CBN DCT TUC UA411 FES UR975 SADIC SADIC3A |
| Aircraft | A359/H-SDE2E3GHIJ3J4J5LM1ORWXY/LB1D1 |
Departure
| Time | N/A |
|---|---|
| Airport | İstanbul Airport (LTFM) |
Arrival
| Time | 2026-05-04 21:54 |
|---|---|
| Airport | Mohammed V International Airport (GMMN) |
| Time | Latitude | Longitude | Altitude | Speed | Heading |
|---|---|---|---|---|---|
| 2026-05-04 17:59 | 40.58405 | 23.86327 | 40058 ft | 478 kts | 264° |
| 2026-05-04 17:59 | 40.57803 | 23.82032 | 40059 ft | 478 kts | 264° |
| 2026-05-04 18:00 | 40.55986 | 23.69130 | 40066 ft | 478 kts | 264° |
| 2026-05-04 18:00 | 40.54777 | 23.60595 | 40069 ft | 478 kts | 264° |
| 2026-05-04 18:01 | 40.53556 | 23.52014 | 40084 ft | 477 kts | 264° |
| 2026-05-04 18:01 | 40.52328 | 23.43451 | 40076 ft | 476 kts | 264° |
| 2026-05-04 18:02 | 40.50480 | 23.30642 | 40074 ft | 476 kts | 264° |
| 2026-05-04 18:02 | 40.49269 | 23.22298 | 40079 ft | 476 kts | 264° |
| 2026-05-04 18:03 | 40.48022 | 23.13763 | 40074 ft | 476 kts | 264° |
| 2026-05-04 18:03 | 40.46769 | 23.05228 | 40069 ft | 476 kts | 264° |
| 2026-05-04 18:04 | 40.45033 | 22.96807 | 40078 ft | 483 kts | 253° |
| 2026-05-04 18:05 | 40.41073 | 22.84622 | 40074 ft | 484 kts | 251° |
| 2026-05-04 18:05 | 40.38327 | 22.76567 | 40061 ft | 483 kts | 251° |
| 2026-05-04 18:06 | 40.34224 | 22.64492 | 40069 ft | 483 kts | 251° |
| 2026-05-04 18:06 | 40.31495 | 22.56449 | 40122 ft | 482 kts | 250° |
| 2026-05-04 18:07 | 40.28736 | 22.48414 | 40082 ft | 484 kts | 251° |
| 2026-05-04 18:07 | 40.26010 | 22.40370 | 40091 ft | 482 kts | 252° |
| 2026-05-04 18:08 | 40.23313 | 22.32339 | 40100 ft | 481 kts | 252° |
| 2026-05-04 18:08 | 40.20614 | 22.24332 | 40093 ft | 481 kts | 252° |
| 2026-05-04 18:09 | 40.15200 | 22.08389 | 40118 ft | 478 kts | 251° |
| 2026-05-04 18:10 | 40.12497 | 22.00471 | 40123 ft | 476 kts | 251° |
| 2026-05-04 18:10 | 40.09770 | 21.92606 | 40120 ft | 476 kts | 251° |
| 2026-05-04 18:11 | 40.07012 | 21.84856 | 40109 ft | 477 kts | 251° |
| 2026-05-04 18:11 | 40.04180 | 21.76918 | 40106 ft | 476 kts | 251° |
| 2026-05-04 18:12 | 40.01392 | 21.69091 | 40113 ft | 475 kts | 251° |
| 2026-05-04 18:12 | 39.98611 | 21.61290 | 40111 ft | 475 kts | 251° |
| 2026-05-04 18:13 | 39.95822 | 21.53485 | 40121 ft | 475 kts | 251° |
| 2026-05-04 18:14 | 39.91681 | 21.41833 | 40119 ft | 474 kts | 251° |
| 2026-05-04 18:14 | 39.88907 | 21.34049 | 40130 ft | 474 kts | 251° |
| 2026-05-04 18:15 | 39.83339 | 21.18495 | 40134 ft | 474 kts | 251° |
| 2026-05-04 18:16 | 39.80549 | 21.10738 | 40129 ft | 474 kts | 251° |
| 2026-05-04 18:16 | 39.77757 | 21.02992 | 40136 ft | 472 kts | 251° |
| 2026-05-04 18:17 | 39.73567 | 20.91414 | 40139 ft | 472 kts | 251° |
| 2026-05-04 18:18 | 39.69373 | 20.79833 | 40119 ft | 472 kts | 251° |
| 2026-05-04 18:18 | 39.66721 | 20.72062 | 40125 ft | 470 kts | 252° |
| 2026-05-04 18:19 | 39.62817 | 20.60392 | 40127 ft | 470 kts | 252° |
| 2026-05-04 18:19 | 39.60188 | 20.52641 | 40126 ft | 470 kts | 252° |
| 2026-05-04 18:20 | 39.57540 | 20.44892 | 40112 ft | 470 kts | 252° |
| 2026-05-04 18:20 | 39.54892 | 20.37154 | 40122 ft | 470 kts | 252° |
| 2026-05-04 18:21 | 39.52232 | 20.29416 | 40102 ft | 470 kts | 252° |
| 2026-05-04 18:21 | 39.49568 | 20.21694 | 40092 ft | 469 kts | 252° |
| 2026-05-04 18:22 | 39.46904 | 20.13985 | 40082 ft | 469 kts | 252° |
| 2026-05-04 18:22 | 39.44562 | 20.06159 | 40075 ft | 461 kts | 262° |
| 2026-05-04 18:23 | 39.43265 | 19.98074 | 40069 ft | 460 kts | 265° |
| 2026-05-04 18:23 | 39.42158 | 19.89928 | 40164 ft | 458 kts | 264° |
| 2026-05-04 18:24 | 39.41066 | 19.81774 | 40126 ft | 462 kts | 266° |
| 2026-05-04 18:24 | 39.39945 | 19.73605 | 40119 ft | 460 kts | 266° |
| 2026-05-04 18:25 | 39.38831 | 19.65475 | 40116 ft | 459 kts | 266° |
| 2026-05-04 18:25 | 39.37720 | 19.57357 | 40116 ft | 459 kts | 266° |
| 2026-05-04 18:26 | 39.36575 | 19.49237 | 40118 ft | 459 kts | 266° |
| 2026-05-04 18:26 | 39.35428 | 19.41178 | 40117 ft | 458 kts | 266° |
| 2026-05-04 18:27 | 39.34277 | 19.33094 | 40120 ft | 457 kts | 266° |
| 2026-05-04 18:27 | 39.33126 | 19.25031 | 40125 ft | 457 kts | 266° |
| 2026-05-04 18:28 | 39.31969 | 19.16960 | 40125 ft | 457 kts | 266° |
| 2026-05-04 18:28 | 39.30807 | 19.08899 | 40120 ft | 456 kts | 266° |
| 2026-05-04 18:29 | 39.29610 | 19.00905 | 40128 ft | 454 kts | 263° |
| 2026-05-04 18:29 | 39.27852 | 18.93027 | 40134 ft | 456 kts | 260° |
| 2026-05-04 18:30 | 39.25331 | 18.82615 | 40134 ft | 457 kts | 259° |
| 2026-05-04 18:31 | 39.23419 | 18.74813 | 40126 ft | 456 kts | 260° |
| 2026-05-04 18:31 | 39.21514 | 18.67032 | 40129 ft | 455 kts | 260° |
| 2026-05-04 18:32 | 39.19610 | 18.59258 | 40134 ft | 454 kts | 260° |
| 2026-05-04 18:32 | 39.17701 | 18.51485 | 40133 ft | 454 kts | 260° |
| 2026-05-04 18:33 | 39.15789 | 18.43729 | 40134 ft | 454 kts | 259° |
| 2026-05-04 18:33 | 39.13854 | 18.35891 | 40138 ft | 464 kts | 260° |
| 2026-05-04 18:34 | 39.11881 | 18.27926 | 40130 ft | 470 kts | 260° |
| 2026-05-04 18:34 | 39.09881 | 18.19899 | 40129 ft | 471 kts | 260° |
| 2026-05-04 18:35 | 39.07875 | 18.11884 | 40129 ft | 470 kts | 260° |
| 2026-05-04 18:35 | 39.05868 | 18.03880 | 40132 ft | 470 kts | 260° |
| 2026-05-04 18:36 | 39.03858 | 17.95888 | 40129 ft | 468 kts | 260° |
| 2026-05-04 18:36 | 39.01903 | 17.88141 | 40129 ft | 468 kts | 260° |
| 2026-05-04 18:37 | 38.99886 | 17.80166 | 40131 ft | 468 kts | 260° |
| 2026-05-04 18:37 | 38.97882 | 17.72269 | 40121 ft | 468 kts | 260° |
| 2026-05-04 18:38 | 38.95849 | 17.64287 | 40128 ft | 467 kts | 260° |
| 2026-05-04 18:38 | 38.93824 | 17.56363 | 40127 ft | 466 kts | 260° |
| 2026-05-04 18:39 | 38.91797 | 17.48455 | 40119 ft | 466 kts | 260° |
| 2026-05-04 18:39 | 38.89781 | 17.40620 | 40127 ft | 465 kts | 259° |
| 2026-05-04 18:40 | 38.87752 | 17.32754 | 40127 ft | 463 kts | 260° |
| 2026-05-04 18:40 | 38.85722 | 17.24909 | 40126 ft | 463 kts | 259° |
| 2026-05-04 18:41 | 38.83688 | 17.17072 | 40134 ft | 463 kts | 259° |
| 2026-05-04 18:41 | 38.81647 | 17.09234 | 40125 ft | 463 kts | 259° |
| 2026-05-04 18:42 | 38.79601 | 17.01403 | 40128 ft | 463 kts | 259° |
| 2026-05-04 18:42 | 38.77552 | 16.93584 | 40128 ft | 462 kts | 260° |
| 2026-05-04 18:43 | 38.75503 | 16.85791 | 40133 ft | 461 kts | 260° |
| 2026-05-04 18:43 | 38.73454 | 16.78018 | 40130 ft | 461 kts | 259° |
| 2026-05-04 18:44 | 38.71397 | 16.70239 | 40133 ft | 461 kts | 259° |
| 2026-05-04 18:44 | 38.69337 | 16.62476 | 40138 ft | 460 kts | 259° |
| 2026-05-04 18:45 | 38.67276 | 16.54735 | 40139 ft | 459 kts | 259° |
| 2026-05-04 18:45 | 38.65213 | 16.47003 | 40146 ft | 459 kts | 259° |
| 2026-05-04 18:46 | 38.63145 | 16.39275 | 40142 ft | 459 kts | 259° |
| 2026-05-04 18:46 | 38.61072 | 16.31563 | 40132 ft | 458 kts | 259° |
| 2026-05-04 18:47 | 38.59018 | 16.23938 | 40143 ft | 456 kts | 259° |
| 2026-05-04 18:47 | 38.56948 | 16.16280 | 40146 ft | 456 kts | 259° |
| 2026-05-04 18:48 | 38.54874 | 16.08631 | 40147 ft | 456 kts | 259° |
| 2026-05-04 18:48 | 38.52793 | 16.00970 | 40142 ft | 456 kts | 259° |
| 2026-05-04 18:49 | 38.50712 | 15.93332 | 40145 ft | 455 kts | 259° |
| 2026-05-04 18:49 | 38.48625 | 15.85702 | 40127 ft | 455 kts | 259° |
| 2026-05-04 18:50 | 38.46539 | 15.78095 | 40138 ft | 453 kts | 259° |
| 2026-05-04 18:50 | 38.44454 | 15.70514 | 40139 ft | 453 kts | 259° |
| 2026-05-04 18:51 | 38.42363 | 15.62932 | 40110 ft | 453 kts | 259° |
| 2026-05-04 18:51 | 38.40268 | 15.55355 | 40140 ft | 453 kts | 259° |
| 2026-05-04 18:52 | 38.38168 | 15.47785 | 40138 ft | 453 kts | 259° |
| 2026-05-04 18:52 | 38.36063 | 15.40222 | 40140 ft | 453 kts | 259° |
| 2026-05-04 18:53 | 38.33953 | 15.32660 | 40132 ft | 453 kts | 258° |
| 2026-05-04 18:53 | 38.31839 | 15.25106 | 40132 ft | 453 kts | 258° |
| 2026-05-04 18:54 | 38.29721 | 15.17559 | 40126 ft | 453 kts | 258° |
| 2026-05-04 18:54 | 38.27611 | 15.10061 | 40124 ft | 453 kts | 258° |
| 2026-05-04 18:55 | 38.25469 | 15.02474 | 40124 ft | 453 kts | 258° |
| 2026-05-04 18:55 | 38.22284 | 14.91225 | 40079 ft | 451 kts | 256° |
| 2026-05-04 18:56 | 38.20166 | 14.83781 | 40182 ft | 440 kts | 256° |
| 2026-05-04 18:56 | 38.18103 | 14.76554 | 40169 ft | 437 kts | 256° |
| 2026-05-04 18:57 | 38.16034 | 14.69309 | 40177 ft | 436 kts | 256° |
| 2026-05-04 18:57 | 38.13964 | 14.62081 | 40181 ft | 435 kts | 256° |
| 2026-05-04 18:58 | 38.11889 | 14.54857 | 40182 ft | 435 kts | 256° |
| 2026-05-04 18:58 | 38.09808 | 14.47637 | 40186 ft | 435 kts | 256° |
| 2026-05-04 18:59 | 38.07723 | 14.40420 | 40185 ft | 436 kts | 256° |
| 2026-05-04 18:59 | 38.05636 | 14.33216 | 40189 ft | 435 kts | 256° |
| 2026-05-04 19:00 | 38.03540 | 14.26000 | 40193 ft | 435 kts | 256° |
| 2026-05-04 19:00 | 38.01445 | 14.18802 | 40196 ft | 435 kts | 255° |
| 2026-05-04 19:01 | 37.99349 | 14.11630 | 40194 ft | 433 kts | 255° |
| 2026-05-04 19:01 | 37.97256 | 14.04482 | 40196 ft | 433 kts | 255° |
| 2026-05-04 19:02 | 37.95156 | 13.97330 | 40207 ft | 433 kts | 255° |
| 2026-05-04 19:02 | 37.93050 | 13.90176 | 40200 ft | 433 kts | 255° |
| 2026-05-04 19:03 | 37.90942 | 13.83035 | 40202 ft | 433 kts | 255° |
| 2026-05-04 19:03 | 37.88830 | 13.75894 | 40203 ft | 433 kts | 255° |
| 2026-05-04 19:04 | 37.86713 | 13.68761 | 40202 ft | 433 kts | 255° |
| 2026-05-04 19:04 | 37.84591 | 13.61627 | 40201 ft | 433 kts | 255° |
| 2026-05-04 19:05 | 37.82467 | 13.54504 | 40204 ft | 433 kts | 255° |
| 2026-05-04 19:05 | 37.80340 | 13.47387 | 40198 ft | 433 kts | 255° |
| 2026-05-04 19:06 | 37.78204 | 13.40261 | 40204 ft | 433 kts | 254° |
| 2026-05-04 19:06 | 37.76067 | 13.33153 | 40204 ft | 433 kts | 254° |
| 2026-05-04 19:07 | 37.73923 | 13.26040 | 40199 ft | 433 kts | 254° |
| 2026-05-04 19:07 | 37.71788 | 13.18974 | 40198 ft | 433 kts | 254° |
| 2026-05-04 19:08 | 37.69638 | 13.11871 | 40195 ft | 433 kts | 254° |
| 2026-05-04 19:08 | 37.67483 | 13.04772 | 40194 ft | 434 kts | 254° |
| 2026-05-04 19:09 | 37.65319 | 12.97666 | 40193 ft | 434 kts | 254° |
| 2026-05-04 19:09 | 37.63149 | 12.90558 | 40187 ft | 434 kts | 254° |
| 2026-05-04 19:10 | 37.60976 | 12.83455 | 40186 ft | 434 kts | 254° |
| 2026-05-04 19:10 | 37.58801 | 12.76365 | 40172 ft | 434 kts | 253° |
| 2026-05-04 19:11 | 37.56617 | 12.69259 | 40178 ft | 435 kts | 253° |
| 2026-05-04 19:11 | 37.54426 | 12.62156 | 40176 ft | 435 kts | 253° |
| 2026-05-04 19:12 | 37.51131 | 12.51503 | 40168 ft | 435 kts | 253° |
| 2026-05-04 19:13 | 37.48930 | 12.44408 | 40173 ft | 435 kts | 253° |
| 2026-05-04 19:13 | 37.46724 | 12.37316 | 40167 ft | 435 kts | 253° |
| 2026-05-04 19:14 | 37.44515 | 12.30233 | 40165 ft | 435 kts | 253° |
| 2026-05-04 19:14 | 37.42316 | 12.23200 | 40161 ft | 435 kts | 253° |
| 2026-05-04 19:15 | 37.40098 | 12.16122 | 40156 ft | 435 kts | 253° |
| 2026-05-04 19:15 | 37.37878 | 12.09054 | 40163 ft | 435 kts | 253° |
| 2026-05-04 19:16 | 37.35651 | 12.01984 | 40153 ft | 435 kts | 253° |
| 2026-05-04 19:16 | 37.33427 | 11.94939 | 40152 ft | 433 kts | 253° |
| 2026-05-04 19:17 | 37.31201 | 11.87908 | 40149 ft | 433 kts | 253° |
| 2026-05-04 19:17 | 37.28972 | 11.80881 | 40146 ft | 433 kts | 253° |
| 2026-05-04 19:18 | 37.26740 | 11.73865 | 40140 ft | 433 kts | 253° |
| 2026-05-04 19:18 | 37.24505 | 11.66854 | 40146 ft | 433 kts | 252° |
| 2026-05-04 19:19 | 37.22642 | 11.61025 | 40139 ft | 432 kts | 252° |
| 2026-05-04 19:19 | 37.20390 | 11.54049 | 40125 ft | 432 kts | 251° |
| 2026-05-04 19:20 | 37.17289 | 11.47523 | 40137 ft | 441 kts | 237° |
| 2026-05-04 19:20 | 37.13302 | 11.41651 | 40126 ft | 443 kts | 234° |
| 2026-05-04 19:21 | 37.09178 | 11.35914 | 40130 ft | 443 kts | 234° |
| 2026-05-04 19:21 | 37.05049 | 11.30195 | 40092 ft | 443 kts | 234° |
| 2026-05-04 19:22 | 37.00932 | 11.24465 | 40085 ft | 442 kts | 234° |
| 2026-05-04 19:22 | 36.96840 | 11.18756 | 40085 ft | 441 kts | 234° |
| 2026-05-04 19:23 | 36.92891 | 11.12901 | 40085 ft | 436 kts | 241° |
| 2026-05-04 19:23 | 36.90192 | 11.06224 | 40087 ft | 428 kts | 256° |
| 2026-05-04 19:24 | 36.89158 | 10.98972 | 40078 ft | 425 kts | 268° |
| 2026-05-04 19:24 | 36.88780 | 10.91589 | 40082 ft | 427 kts | 270° |
| 2026-05-04 19:25 | 36.88472 | 10.84183 | 40076 ft | 427 kts | 269° |
| 2026-05-04 19:25 | 36.88136 | 10.76862 | 40076 ft | 427 kts | 269° |
| 2026-05-04 19:26 | 36.87770 | 10.69503 | 40069 ft | 427 kts | 269° |
| 2026-05-04 19:26 | 36.87389 | 10.62094 | 40071 ft | 427 kts | 269° |
| 2026-05-04 19:27 | 36.87005 | 10.54690 | 40064 ft | 427 kts | 269° |
| 2026-05-04 19:27 | 36.86615 | 10.47260 | 40064 ft | 425 kts | 269° |
| 2026-05-04 19:28 | 36.86227 | 10.39944 | 40059 ft | 425 kts | 269° |
| 2026-05-04 19:28 | 36.85833 | 10.32579 | 40057 ft | 425 kts | 269° |
| 2026-05-04 19:29 | 36.85435 | 10.25235 | 40048 ft | 425 kts | 269° |
| 2026-05-04 19:29 | 36.85123 | 10.17855 | 40049 ft | 424 kts | 271° |
| 2026-05-04 19:30 | 36.85061 | 10.10509 | 40046 ft | 423 kts | 272° |
| 2026-05-04 19:30 | 36.85010 | 10.03157 | 40047 ft | 423 kts | 271° |
| 2026-05-04 19:31 | 36.84917 | 9.95812 | 40045 ft | 423 kts | 271° |
| 2026-05-04 19:31 | 36.84798 | 9.88476 | 40045 ft | 423 kts | 271° |
| 2026-05-04 19:32 | 36.84671 | 9.81136 | 40039 ft | 423 kts | 271° |
| 2026-05-04 19:32 | 36.84541 | 9.73806 | 40039 ft | 422 kts | 271° |
| 2026-05-04 19:33 | 36.84408 | 9.66480 | 40040 ft | 422 kts | 271° |
| 2026-05-04 19:33 | 36.84270 | 9.59154 | 40038 ft | 422 kts | 271° |
| 2026-05-04 19:34 | 36.84128 | 9.51827 | 40041 ft | 422 kts | 271° |
| 2026-05-04 19:34 | 36.83982 | 9.44498 | 40041 ft | 422 kts | 271° |
| 2026-05-04 19:35 | 36.83836 | 9.37186 | 40039 ft | 421 kts | 270° |
| 2026-05-04 19:35 | 36.83675 | 9.29893 | 40036 ft | 421 kts | 270° |
| 2026-05-04 19:36 | 36.83508 | 9.22594 | 40042 ft | 420 kts | 270° |
| 2026-05-04 19:36 | 36.83339 | 9.15297 | 40045 ft | 420 kts | 270° |
| 2026-05-04 19:37 | 36.83168 | 9.08008 | 40054 ft | 421 kts | 270° |
| 2026-05-04 19:37 | 36.82990 | 9.00769 | 40048 ft | 420 kts | 270° |
| 2026-05-04 19:38 | 36.82867 | 8.93443 | 40049 ft | 419 kts | 272° |
| 2026-05-04 19:38 | 36.83059 | 8.86220 | 40047 ft | 420 kts | 274° |
| 2026-05-04 19:39 | 36.83298 | 8.78946 | 40048 ft | 419 kts | 274° |
| 2026-05-04 19:39 | 36.83488 | 8.71667 | 40052 ft | 419 kts | 273° |
| 2026-05-04 19:40 | 36.83645 | 8.64389 | 40049 ft | 420 kts | 273° |
| 2026-05-04 19:40 | 36.83699 | 8.57106 | 40048 ft | 420 kts | 271° |
| 2026-05-04 19:41 | 36.83662 | 8.49821 | 40050 ft | 419 kts | 271° |
| 2026-05-04 19:41 | 36.83634 | 8.42534 | 40053 ft | 419 kts | 271° |
| 2026-05-04 19:42 | 36.83620 | 8.35258 | 40053 ft | 419 kts | 272° |
| 2026-05-04 19:42 | 36.83609 | 8.27986 | 40058 ft | 419 kts | 271° |
| 2026-05-04 19:43 | 36.83593 | 8.20720 | 40055 ft | 418 kts | 271° |
| 2026-05-04 19:43 | 36.83573 | 8.13463 | 40052 ft | 418 kts | 271° |
| 2026-05-04 19:44 | 36.83547 | 8.06199 | 40051 ft | 418 kts | 271° |
| 2026-05-04 19:44 | 36.83517 | 7.98934 | 40049 ft | 418 kts | 271° |
| 2026-05-04 19:45 | 36.83483 | 7.91681 | 40051 ft | 418 kts | 271° |
| 2026-05-04 19:45 | 36.83445 | 7.84436 | 40046 ft | 418 kts | 271° |
| 2026-05-04 19:46 | 36.83393 | 7.77192 | 40051 ft | 418 kts | 271° |
| 2026-05-04 19:46 | 36.83314 | 7.69941 | 40050 ft | 418 kts | 271° |
| 2026-05-04 19:47 | 36.83229 | 7.62698 | 40050 ft | 418 kts | 271° |
| 2026-05-04 19:47 | 36.83142 | 7.55444 | 40056 ft | 417 kts | 271° |
| 2026-05-04 19:48 | 36.83053 | 7.48264 | 40053 ft | 416 kts | 271° |
| 2026-05-04 19:48 | 36.82960 | 7.41039 | 40046 ft | 416 kts | 271° |
| 2026-05-04 19:49 | 36.82862 | 7.33813 | 40047 ft | 416 kts | 271° |
| 2026-05-04 19:49 | 36.82760 | 7.26586 | 40049 ft | 416 kts | 270° |
| 2026-05-04 19:50 | 36.82654 | 7.19368 | 40049 ft | 416 kts | 270° |
| 2026-05-04 19:50 | 36.82542 | 7.12144 | 40048 ft | 416 kts | 270° |
| 2026-05-04 19:51 | 36.82427 | 7.04926 | 40047 ft | 416 kts | 270° |
| 2026-05-04 19:51 | 36.82309 | 6.97733 | 40039 ft | 416 kts | 270° |
| 2026-05-04 19:52 | 36.82183 | 6.90477 | 40047 ft | 416 kts | 270° |
| 2026-05-04 19:52 | 36.82055 | 6.83261 | 40045 ft | 416 kts | 270° |
| 2026-05-04 19:53 | 36.81923 | 6.76031 | 40045 ft | 417 kts | 270° |
| 2026-05-04 19:53 | 36.81785 | 6.68801 | 40047 ft | 417 kts | 270° |
| 2026-05-04 19:54 | 36.81644 | 6.61622 | 40044 ft | 417 kts | 270° |
| 2026-05-04 19:54 | 36.81500 | 6.54483 | 40044 ft | 417 kts | 270° |
| 2026-05-04 19:55 | 36.81347 | 6.47171 | 40033 ft | 417 kts | 270° |
| 2026-05-04 19:55 | 36.81193 | 6.39926 | 40039 ft | 418 kts | 270° |
| 2026-05-04 19:56 | 36.81032 | 6.32651 | 40035 ft | 419 kts | 269° |
| 2026-05-04 19:56 | 36.80868 | 6.25390 | 40035 ft | 419 kts | 269° |
| 2026-05-04 19:57 | 36.80699 | 6.18140 | 40021 ft | 419 kts | 269° |
| 2026-05-04 19:57 | 36.80526 | 6.10875 | 40025 ft | 419 kts | 269° |
| 2026-05-04 19:58 | 36.80349 | 6.03599 | 40028 ft | 419 kts | 269° |
| 2026-05-04 19:58 | 36.80168 | 5.96332 | 40020 ft | 419 kts | 269° |
| 2026-05-04 19:59 | 36.79973 | 5.89053 | 40015 ft | 420 kts | 268° |
| 2026-05-04 19:59 | 36.79378 | 5.81815 | 40021 ft | 420 kts | 265° |
| 2026-05-04 20:00 | 36.78662 | 5.74586 | 40019 ft | 419 kts | 264° |
| 2026-05-04 20:00 | 36.77925 | 5.67370 | 40018 ft | 419 kts | 264° |
| 2026-05-04 20:01 | 36.77187 | 5.60162 | 40003 ft | 419 kts | 264° |
| 2026-05-04 20:01 | 36.76452 | 5.52968 | 40004 ft | 419 kts | 264° |
| 2026-05-04 20:02 | 36.75713 | 5.45765 | 40002 ft | 419 kts | 264° |
| 2026-05-04 20:02 | 36.74969 | 5.38559 | 40007 ft | 419 kts | 264° |
| 2026-05-04 20:03 | 36.74222 | 5.31366 | 40013 ft | 419 kts | 264° |
| 2026-05-04 20:03 | 36.73468 | 5.24160 | 40015 ft | 419 kts | 264° |
| 2026-05-04 20:04 | 36.72712 | 5.16970 | 40021 ft | 418 kts | 264° |
| 2026-05-04 20:04 | 36.71952 | 5.09777 | 40021 ft | 418 kts | 264° |
| 2026-05-04 20:05 | 36.71334 | 5.02588 | 40006 ft | 422 kts | 268° |
| 2026-05-04 20:05 | 36.71131 | 4.95303 | 40025 ft | 419 kts | 269° |
| 2026-05-04 20:06 | 36.70957 | 4.88087 | 40019 ft | 418 kts | 268° |
| 2026-05-04 20:06 | 36.70711 | 4.80821 | 40014 ft | 417 kts | 268° |
| 2026-05-04 20:07 | 36.70474 | 4.74770 | 40014 ft | 417 kts | 268° |
| 2026-05-04 20:07 | 36.70181 | 4.67559 | 40012 ft | 417 kts | 268° |
| 2026-05-04 20:08 | 36.69885 | 4.60342 | 40014 ft | 417 kts | 268° |
| 2026-05-04 20:08 | 36.69587 | 4.53138 | 40022 ft | 415 kts | 268° |
| 2026-05-04 20:09 | 36.69287 | 4.45971 | 40022 ft | 414 kts | 268° |
| 2026-05-04 20:09 | 36.68983 | 4.38815 | 40024 ft | 414 kts | 268° |
| 2026-05-04 20:10 | 36.68677 | 4.31706 | 40023 ft | 413 kts | 268° |
| 2026-05-04 20:10 | 36.68366 | 4.24558 | 40032 ft | 413 kts | 268° |
| 2026-05-04 20:11 | 36.68049 | 4.17403 | 40038 ft | 413 kts | 268° |
| 2026-05-04 20:11 | 36.67729 | 4.10264 | 40034 ft | 413 kts | 268° |
| 2026-05-04 20:12 | 36.67405 | 4.03122 | 40035 ft | 413 kts | 268° |
| 2026-05-04 20:12 | 36.67081 | 3.95983 | 40037 ft | 413 kts | 268° |
| 2026-05-04 20:13 | 36.66747 | 3.88839 | 40039 ft | 413 kts | 268° |
| 2026-05-04 20:13 | 36.66407 | 3.81701 | 40039 ft | 413 kts | 268° |
| 2026-05-04 20:14 | 36.66065 | 3.74565 | 40046 ft | 413 kts | 268° |
| 2026-05-04 20:14 | 36.65719 | 3.67438 | 40044 ft | 412 kts | 268° |
| 2026-05-04 20:15 | 36.65430 | 3.60305 | 40035 ft | 412 kts | 271° |
| 2026-05-04 20:15 | 36.65933 | 3.53196 | 40012 ft | 413 kts | 277° |
| 2026-05-04 20:16 | 36.66672 | 3.46095 | 39997 ft | 414 kts | 277° |
| 2026-05-04 20:16 | 36.67444 | 3.38996 | 39978 ft | 414 kts | 277° |
| 2026-05-04 20:17 | 36.68205 | 3.31881 | 39966 ft | 414 kts | 277° |
| 2026-05-04 20:17 | 36.68944 | 3.24763 | 39960 ft | 414 kts | 276° |
| 2026-05-04 20:18 | 36.68932 | 3.17600 | 39969 ft | 414 kts | 267° |
| 2026-05-04 20:18 | 36.68396 | 3.10474 | 39966 ft | 413 kts | 265° |
| 2026-05-04 20:19 | 36.67779 | 3.03391 | 39986 ft | 413 kts | 265° |
| 2026-05-04 20:19 | 36.67153 | 2.96256 | 40000 ft | 413 kts | 265° |
| 2026-05-04 20:20 | 36.66542 | 2.89190 | 40015 ft | 413 kts | 265° |
| 2026-05-04 20:20 | 36.65929 | 2.82085 | 40031 ft | 413 kts | 265° |
| 2026-05-04 20:21 | 36.65312 | 2.74979 | 40044 ft | 413 kts | 265° |
| 2026-05-04 20:21 | 36.64377 | 2.64321 | 40047 ft | 412 kts | 265° |
| 2026-05-04 20:22 | 36.63753 | 2.57266 | 40034 ft | 409 kts | 265° |
| 2026-05-04 20:22 | 36.63127 | 2.50239 | 40034 ft | 408 kts | 265° |
| 2026-05-04 20:23 | 36.62497 | 2.43213 | 40034 ft | 408 kts | 265° |
| 2026-05-04 20:23 | 36.61862 | 2.36192 | 39975 ft | 410 kts | 265° |
| 2026-05-04 20:24 | 36.61218 | 2.29126 | 40037 ft | 410 kts | 265° |
| 2026-05-04 20:24 | 36.60543 | 2.22120 | 40027 ft | 406 kts | 262° |
| 2026-05-04 20:25 | 36.58978 | 2.15369 | 40038 ft | 408 kts | 253° |
| 2026-05-04 20:25 | 36.56848 | 2.08833 | 40035 ft | 407 kts | 251° |
| 2026-05-04 20:26 | 36.54630 | 2.02352 | 40039 ft | 408 kts | 251° |
| 2026-05-04 20:26 | 36.52427 | 1.95920 | 40027 ft | 407 kts | 251° |
| 2026-05-04 20:27 | 36.50221 | 1.89446 | 40044 ft | 407 kts | 251° |
| 2026-05-04 20:27 | 36.48020 | 1.82979 | 40032 ft | 406 kts | 251° |
| 2026-05-04 20:28 | 36.45816 | 1.76516 | 40039 ft | 406 kts | 251° |
| 2026-05-04 20:28 | 36.43610 | 1.70060 | 40034 ft | 406 kts | 251° |
| 2026-05-04 20:29 | 36.41395 | 1.63595 | 40045 ft | 406 kts | 251° |
| 2026-05-04 20:29 | 36.39180 | 1.57147 | 40044 ft | 406 kts | 251° |
| 2026-05-04 20:30 | 36.36963 | 1.50701 | 40043 ft | 406 kts | 251° |
| 2026-05-04 20:30 | 36.34769 | 1.44244 | 40048 ft | 406 kts | 251° |
| 2026-05-04 20:31 | 36.32609 | 1.37772 | 40048 ft | 406 kts | 252° |
| 2026-05-04 20:31 | 36.30447 | 1.31311 | 40049 ft | 406 kts | 251° |
| 2026-05-04 20:32 | 36.28273 | 1.24849 | 40048 ft | 406 kts | 251° |
| 2026-05-04 20:32 | 36.26092 | 1.18400 | 40051 ft | 405 kts | 236° |
| 2026-05-04 20:33 | 36.23524 | 1.12201 | 40033 ft | 406 kts | 244° |
| 2026-05-04 20:33 | 36.21167 | 1.05814 | 40047 ft | 409 kts | 246° |
| 2026-05-04 20:34 | 36.19000 | 0.99309 | 40046 ft | 408 kts | 249° |
| 2026-05-04 20:34 | 36.16906 | 0.92788 | 40046 ft | 407 kts | 249° |
| 2026-05-04 20:35 | 36.14766 | 0.86300 | 40039 ft | 407 kts | 248° |
| 2026-05-04 20:35 | 36.12571 | 0.79837 | 40039 ft | 408 kts | 248° |
| 2026-05-04 20:36 | 36.10355 | 0.73383 | 40042 ft | 408 kts | 248° |
| 2026-05-04 20:36 | 36.08149 | 0.66917 | 40042 ft | 408 kts | 249° |
| 2026-05-04 20:37 | 36.05959 | 0.60438 | 40038 ft | 408 kts | 250° |
| 2026-05-04 20:37 | 36.03790 | 0.54012 | 40043 ft | 408 kts | 249° |
| 2026-05-04 20:38 | 36.01562 | 0.47515 | 40043 ft | 408 kts | 249° |
| 2026-05-04 20:38 | 35.99349 | 0.41112 | 40039 ft | 408 kts | 249° |
| 2026-05-04 20:39 | 35.97116 | 0.34676 | 40041 ft | 408 kts | 249° |
| 2026-05-04 20:39 | 35.94874 | 0.28233 | 40040 ft | 409 kts | 249° |
| 2026-05-04 20:40 | 35.92636 | 0.21786 | 40042 ft | 409 kts | 249° |
| 2026-05-04 20:40 | 35.90400 | 0.15344 | 40042 ft | 409 kts | 249° |
| 2026-05-04 20:41 | 35.88142 | 0.08912 | 40036 ft | 409 kts | 248° |
| 2026-05-04 20:41 | 35.85851 | 0.02499 | 40037 ft | 409 kts | 249° |
| 2026-05-04 20:42 | 35.83555 | -0.03913 | 40039 ft | 409 kts | 249° |
| 2026-05-04 20:42 | 35.81251 | -0.10328 | 40040 ft | 410 kts | 248° |
| 2026-05-04 20:43 | 35.78943 | -0.16739 | 40037 ft | 410 kts | 248° |
| 2026-05-04 20:43 | 35.76629 | -0.23153 | 40038 ft | 409 kts | 248° |
| 2026-05-04 20:44 | 35.74316 | -0.29550 | 40035 ft | 409 kts | 249° |
| 2026-05-04 20:44 | 35.72014 | -0.35905 | 40042 ft | 409 kts | 248° |
| 2026-05-04 20:45 | 35.69682 | -0.42332 | 40045 ft | 409 kts | 248° |
| 2026-05-04 20:45 | 35.67373 | -0.48680 | 40046 ft | 409 kts | 248° |
| 2026-05-04 20:46 | 35.65049 | -0.55058 | 40048 ft | 409 kts | 248° |
| 2026-05-04 20:46 | 35.62726 | -0.61420 | 40048 ft | 409 kts | 248° |
| 2026-05-04 20:47 | 35.59885 | -0.67519 | 40049 ft | 414 kts | 238° |
| 2026-05-04 20:47 | 35.56417 | -0.73182 | 40047 ft | 415 kts | 236° |
| 2026-05-04 20:48 | 35.52845 | -0.78764 | 40050 ft | 416 kts | 236° |
| 2026-05-04 20:48 | 35.49267 | -0.84338 | 40023 ft | 415 kts | 236° |
| 2026-05-04 20:49 | 35.45705 | -0.89909 | 40045 ft | 415 kts | 236° |
| 2026-05-04 20:49 | 35.42146 | -0.95481 | 40048 ft | 415 kts | 236° |
| 2026-05-04 20:50 | 35.38588 | -1.01047 | 40050 ft | 415 kts | 236° |
| 2026-05-04 20:50 | 35.35027 | -1.06607 | 40049 ft | 415 kts | 236° |
| 2026-05-04 20:51 | 35.31462 | -1.12166 | 40050 ft | 415 kts | 236° |
| 2026-05-04 20:51 | 35.27894 | -1.17717 | 40053 ft | 415 kts | 236° |
| 2026-05-04 20:52 | 35.24326 | -1.23260 | 40045 ft | 415 kts | 236° |
| 2026-05-04 20:52 | 35.20750 | -1.28808 | 40052 ft | 416 kts | 236° |
| 2026-05-04 20:53 | 35.17163 | -1.34363 | 40050 ft | 416 kts | 236° |
| 2026-05-04 20:53 | 35.13573 | -1.39913 | 40073 ft | 416 kts | 236° |
| 2026-05-04 20:54 | 35.10588 | -1.44522 | 40076 ft | 416 kts | 236° |
| 2026-05-04 20:54 | 35.06989 | -1.50062 | 40074 ft | 416 kts | 236° |
| 2026-05-04 20:55 | 35.03378 | -1.55591 | 40075 ft | 416 kts | 236° |
| 2026-05-04 20:55 | 34.99773 | -1.61117 | 40073 ft | 416 kts | 236° |
| 2026-05-04 20:56 | 34.96171 | -1.66644 | 40064 ft | 417 kts | 236° |
| 2026-05-04 20:56 | 34.92557 | -1.72184 | 40062 ft | 418 kts | 236° |
| 2026-05-04 20:57 | 34.88941 | -1.77714 | 40057 ft | 417 kts | 236° |
| 2026-05-04 20:57 | 34.85322 | -1.83240 | 40051 ft | 417 kts | 236° |
| 2026-05-04 20:58 | 34.81655 | -1.88725 | 40102 ft | 418 kts | 234° |
| 2026-05-04 20:58 | 34.78150 | -1.94331 | 40101 ft | 414 kts | 242° |
| 2026-05-04 20:59 | 34.75813 | -2.00647 | 40104 ft | 409 kts | 252° |
| 2026-05-04 20:59 | 34.74045 | -2.07159 | 40094 ft | 408 kts | 254° |
| 2026-05-04 21:00 | 34.72352 | -2.13744 | 40079 ft | 408 kts | 254° |
| 2026-05-04 21:00 | 34.70647 | -2.20320 | 40073 ft | 408 kts | 253° |
| 2026-05-04 21:01 | 34.68919 | -2.26894 | 40062 ft | 409 kts | 253° |
| 2026-05-04 21:01 | 34.67179 | -2.33469 | 40043 ft | 409 kts | 253° |
| 2026-05-04 21:02 | 34.65435 | -2.40039 | 40047 ft | 408 kts | 253° |
| 2026-05-04 21:02 | 34.63690 | -2.46601 | 40038 ft | 408 kts | 253° |
| 2026-05-04 21:03 | 34.61940 | -2.53167 | 40035 ft | 408 kts | 253° |
| 2026-05-04 21:03 | 34.60191 | -2.59715 | 40037 ft | 408 kts | 253° |
| 2026-05-04 21:04 | 34.58437 | -2.66270 | 40042 ft | 408 kts | 253° |
| 2026-05-04 21:04 | 34.56650 | -2.72801 | 40039 ft | 407 kts | 253° |
| 2026-05-04 21:05 | 34.54863 | -2.79311 | 40034 ft | 406 kts | 253° |
| 2026-05-04 21:05 | 34.53103 | -2.85817 | 40034 ft | 406 kts | 253° |
| 2026-05-04 21:06 | 34.51343 | -2.92330 | 40037 ft | 406 kts | 253° |
| 2026-05-04 21:06 | 34.49578 | -2.98835 | 40038 ft | 406 kts | 253° |
| 2026-05-04 21:07 | 34.47808 | -3.05334 | 40032 ft | 406 kts | 253° |
| 2026-05-04 21:07 | 34.46029 | -3.11846 | 40036 ft | 407 kts | 253° |
| 2026-05-04 21:08 | 34.44243 | -3.18365 | 40051 ft | 408 kts | 253° |
| 2026-05-04 21:08 | 34.42454 | -3.24880 | 40037 ft | 408 kts | 252° |
| 2026-05-04 21:09 | 34.40664 | -3.31388 | 40044 ft | 407 kts | 252° |
| 2026-05-04 21:09 | 34.38869 | -3.37897 | 40040 ft | 407 kts | 252° |
| 2026-05-04 21:10 | 34.37073 | -3.44396 | 40061 ft | 407 kts | 252° |
| 2026-05-04 21:10 | 34.35283 | -3.50879 | 40045 ft | 405 kts | 252° |
| 2026-05-04 21:11 | 34.33543 | -3.57350 | 40050 ft | 404 kts | 253° |
| 2026-05-04 21:11 | 34.31815 | -3.63814 | 40055 ft | 404 kts | 253° |
| 2026-05-04 21:12 | 34.30068 | -3.70280 | 40055 ft | 404 kts | 253° |
| 2026-05-04 21:12 | 34.28312 | -3.76727 | 40044 ft | 404 kts | 253° |
| 2026-05-04 21:13 | 34.26547 | -3.83182 | 40054 ft | 404 kts | 253° |
| 2026-05-04 21:13 | 34.24781 | -3.89637 | 40058 ft | 405 kts | 253° |
| 2026-05-04 21:14 | 34.23008 | -3.96094 | 40073 ft | 405 kts | 252° |
| 2026-05-04 21:14 | 34.21215 | -4.02547 | 40074 ft | 405 kts | 252° |
| 2026-05-04 21:15 | 34.19430 | -4.08993 | 40061 ft | 405 kts | 252° |
| 2026-05-04 21:15 | 34.17647 | -4.15443 | 40070 ft | 405 kts | 252° |
| 2026-05-04 21:16 | 34.15837 | -4.21882 | 40071 ft | 404 kts | 252° |
| 2026-05-04 21:16 | 34.13983 | -4.28293 | 40074 ft | 405 kts | 252° |
| 2026-05-04 21:17 | 34.12148 | -4.34719 | 40096 ft | 405 kts | 252° |
| 2026-05-04 21:17 | 34.10308 | -4.41149 | 40090 ft | 406 kts | 252° |
| 2026-05-04 21:18 | 34.08451 | -4.47574 | 40097 ft | 405 kts | 252° |
| 2026-05-04 21:18 | 34.06603 | -4.53945 | 40098 ft | 405 kts | 252° |
| 2026-05-04 21:19 | 34.04740 | -4.60357 | 40100 ft | 405 kts | 252° |
| 2026-05-04 21:19 | 34.02875 | -4.66766 | 40098 ft | 405 kts | 252° |
| 2026-05-04 21:20 | 34.01007 | -4.73174 | 40122 ft | 405 kts | 252° |
| 2026-05-04 21:20 | 33.99138 | -4.79571 | 40123 ft | 405 kts | 252° |
| 2026-05-04 21:21 | 33.97265 | -4.85968 | 40130 ft | 405 kts | 252° |
| 2026-05-04 21:21 | 33.95389 | -4.92360 | 40131 ft | 405 kts | 252° |
| 2026-05-04 21:22 | 33.93513 | -4.98746 | 40132 ft | 404 kts | 252° |
| 2026-05-04 21:22 | 33.92198 | -5.05274 | 40138 ft | 400 kts | 259° |
| 2026-05-04 21:23 | 33.91224 | -5.11880 | 40121 ft | 400 kts | 260° |
| 2026-05-04 21:23 | 33.90564 | -5.16595 | 40125 ft | 400 kts | 261° |
| 2026-05-04 21:24 | 33.89637 | -5.23210 | 40112 ft | 400 kts | 260° |
| 2026-05-04 21:24 | 33.88698 | -5.29814 | 40113 ft | 400 kts | 260° |
| 2026-05-04 21:25 | 33.87750 | -5.36420 | 40105 ft | 401 kts | 260° |
| 2026-05-04 21:25 | 33.86801 | -5.43000 | 39954 ft | 406 kts | 260° |
| 2026-05-04 21:26 | 33.85818 | -5.49791 | 39833 ft | 408 kts | 260° |
| 2026-05-04 21:26 | 33.85331 | -5.53143 | 39616 ft | 406 kts | 260° |
| 2026-05-04 21:26 | 33.84844 | -5.56489 | 39387 ft | 406 kts | 260° |
| 2026-05-04 21:27 | 33.84358 | -5.59824 | 39158 ft | 405 kts | 260° |
| 2026-05-04 21:27 | 33.83870 | -5.63161 | 38932 ft | 404 kts | 260° |
| 2026-05-04 21:27 | 33.83390 | -5.66442 | 38698 ft | 403 kts | 260° |
| 2026-05-04 21:27 | 33.82903 | -5.69762 | 38414 ft | 404 kts | 260° |
| 2026-05-04 21:28 | 33.82414 | -5.73090 | 38140 ft | 406 kts | 260° |
| 2026-05-04 21:28 | 33.81921 | -5.76441 | 37849 ft | 408 kts | 260° |
| 2026-05-04 21:28 | 33.81427 | -5.79790 | 37394 ft | 404 kts | 260° |
| 2026-05-04 21:28 | 33.80936 | -5.83110 | 36817 ft | 402 kts | 260° |
| 2026-05-04 21:29 | 33.80446 | -5.86411 | 36185 ft | 401 kts | 259° |
| 2026-05-04 21:29 | 33.79957 | -5.89705 | 35526 ft | 401 kts | 259° |
| 2026-05-04 21:29 | 33.79467 | -5.92994 | 35030 ft | 398 kts | 259° |
| 2026-05-04 21:29 | 33.78982 | -5.96248 | 34545 ft | 394 kts | 259° |
| 2026-05-04 21:30 | 33.78500 | -5.99479 | 34059 ft | 391 kts | 259° |
| 2026-05-04 21:30 | 33.78020 | -6.02682 | 33519 ft | 388 kts | 259° |
| 2026-05-04 21:30 | 33.77544 | -6.05856 | 33045 ft | 384 kts | 259° |
| 2026-05-04 21:30 | 33.77072 | -6.09002 | 32573 ft | 381 kts | 259° |
| 2026-05-04 21:31 | 33.76131 | -6.15256 | 31626 ft | 380 kts | 259° |
| 2026-05-04 21:31 | 33.75660 | -6.18375 | 31152 ft | 379 kts | 259° |
| 2026-05-04 21:31 | 33.75189 | -6.21490 | 30679 ft | 379 kts | 259° |
| 2026-05-04 21:32 | 33.74717 | -6.24603 | 30209 ft | 378 kts | 259° |
| 2026-05-04 21:32 | 33.74246 | -6.27711 | 29673 ft | 378 kts | 259° |
| 2026-05-04 21:32 | 33.73775 | -6.30805 | 29180 ft | 375 kts | 259° |
| 2026-05-04 21:32 | 33.73308 | -6.33876 | 28708 ft | 372 kts | 259° |
| 2026-05-04 21:33 | 33.72852 | -6.36926 | 28248 ft | 369 kts | 259° |
| 2026-05-04 21:33 | 33.72398 | -6.39952 | 27772 ft | 367 kts | 259° |
| 2026-05-04 21:33 | 33.71946 | -6.42954 | 27300 ft | 364 kts | 259° |
| 2026-05-04 21:33 | 33.71497 | -6.45939 | 26825 ft | 361 kts | 259° |
| 2026-05-04 21:34 | 33.71051 | -6.48895 | 26351 ft | 359 kts | 259° |
| 2026-05-04 21:34 | 33.70606 | -6.51837 | 25879 ft | 357 kts | 259° |
| 2026-05-04 21:34 | 33.70162 | -6.54772 | 25404 ft | 356 kts | 259° |
| 2026-05-04 21:34 | 33.69720 | -6.57690 | 24924 ft | 355 kts | 260° |
| 2026-05-04 21:35 | 33.69275 | -6.60592 | 24446 ft | 353 kts | 259° |
| 2026-05-04 21:35 | 33.68819 | -6.63486 | 23970 ft | 352 kts | 259° |
| 2026-05-04 21:35 | 33.68364 | -6.66362 | 23444 ft | 351 kts | 259° |
| 2026-05-04 21:35 | 33.67910 | -6.69234 | 22920 ft | 348 kts | 259° |
| 2026-05-04 21:36 | 33.67462 | -6.72075 | 22453 ft | 345 kts | 259° |
| 2026-05-04 21:36 | 33.67022 | -6.74857 | 21946 ft | 342 kts | 259° |
| 2026-05-04 21:36 | 33.66581 | -6.77646 | 21485 ft | 339 kts | 259° |
| 2026-05-04 21:36 | 33.66143 | -6.80413 | 21010 ft | 336 kts | 259° |
| 2026-05-04 21:37 | 33.65707 | -6.83159 | 20533 ft | 334 kts | 259° |
| 2026-05-04 21:37 | 33.65098 | -6.85836 | 20075 ft | 332 kts | 249° |
| 2026-05-04 21:37 | 33.63942 | -6.88214 | 19605 ft | 332 kts | 232° |
| 2026-05-04 21:37 | 33.62225 | -6.90063 | 19123 ft | 335 kts | 216° |
| 2026-05-04 21:38 | 33.60111 | -6.91252 | 18649 ft | 338 kts | 203° |
| 2026-05-04 21:38 | 33.57876 | -6.92144 | 18124 ft | 338 kts | 201° |
| 2026-05-04 21:38 | 33.55643 | -6.93000 | 17635 ft | 336 kts | 201° |
| 2026-05-04 21:38 | 33.53424 | -6.93857 | 17144 ft | 333 kts | 201° |
| 2026-05-04 21:39 | 33.51224 | -6.94715 | 16666 ft | 331 kts | 201° |
| 2026-05-04 21:39 | 33.49042 | -6.95571 | 16206 ft | 329 kts | 201° |
| 2026-05-04 21:39 | 33.46876 | -6.96422 | 15713 ft | 327 kts | 201° |
| 2026-05-04 21:39 | 33.44724 | -6.97270 | 15258 ft | 324 kts | 201° |
| 2026-05-04 21:40 | 33.42588 | -6.98112 | 14795 ft | 322 kts | 201° |
| 2026-05-04 21:40 | 33.40462 | -6.98950 | 14333 ft | 321 kts | 201° |
| 2026-05-04 21:40 | 33.38345 | -6.99785 | 13866 ft | 319 kts | 201° |
| 2026-05-04 21:40 | 33.36224 | -7.00523 | 13352 ft | 316 kts | 196° |
| 2026-05-04 21:41 | 33.34832 | -7.01009 | 13061 ft | 314 kts | 198° |
| 2026-05-04 21:41 | 33.32761 | -7.01826 | 12607 ft | 312 kts | 200° |
| 2026-05-04 21:41 | 33.30717 | -7.02665 | 12168 ft | 310 kts | 201° |
| 2026-05-04 21:41 | 33.28689 | -7.03499 | 11715 ft | 307 kts | 201° |
| 2026-05-04 21:42 | 33.26669 | -7.04319 | 11258 ft | 305 kts | 201° |
| 2026-05-04 21:42 | 33.24663 | -7.05125 | 10823 ft | 303 kts | 201° |
| 2026-05-04 21:42 | 33.22674 | -7.05915 | 10449 ft | 298 kts | 200° |
| 2026-05-04 21:42 | 33.20763 | -7.06726 | 10305 ft | 284 kts | 206° |
| 2026-05-04 21:43 | 33.19165 | -7.07973 | 10175 ft | 268 kts | 225° |
| 2026-05-04 21:43 | 33.18113 | -7.09725 | 10058 ft | 259 kts | 246° |
| 2026-05-04 21:43 | 33.17580 | -7.11840 | 9934 ft | 272 kts | 258° |
| 2026-05-04 21:43 | 33.17237 | -7.14064 | 9662 ft | 272 kts | 259° |
| 2026-05-04 21:44 | 33.16912 | -7.16298 | 9145 ft | 274 kts | 259° |
| 2026-05-04 21:44 | 33.16579 | -7.18535 | 8754 ft | 274 kts | 259° |
| 2026-05-04 21:44 | 33.16241 | -7.20767 | 8411 ft | 273 kts | 259° |
| 2026-05-04 21:44 | 33.15899 | -7.22992 | 8087 ft | 273 kts | 259° |
| 2026-05-04 21:45 | 33.15555 | -7.25214 | 7734 ft | 272 kts | 259° |
| 2026-05-04 21:45 | 33.15214 | -7.27407 | 7416 ft | 272 kts | 259° |
| 2026-05-04 21:45 | 33.14874 | -7.29614 | 7081 ft | 270 kts | 259° |
| 2026-05-04 21:45 | 33.14530 | -7.31810 | 6750 ft | 269 kts | 259° |
| 2026-05-04 21:46 | 33.14185 | -7.33997 | 6417 ft | 267 kts | 260° |
| 2026-05-04 21:46 | 33.13845 | -7.36162 | 6072 ft | 266 kts | 259° |
| 2026-05-04 21:46 | 33.13502 | -7.38342 | 5765 ft | 267 kts | 259° |
| 2026-05-04 21:46 | 33.13163 | -7.40495 | 5499 ft | 261 kts | 259° |
| 2026-05-04 21:47 | 33.12835 | -7.42579 | 5308 ft | 250 kts | 259° |
| 2026-05-04 21:47 | 33.12520 | -7.44575 | 5161 ft | 239 kts | 260° |
| 2026-05-04 21:47 | 33.12218 | -7.46486 | 5013 ft | 230 kts | 260° |
| 2026-05-04 21:47 | 33.12055 | -7.48336 | 4863 ft | 220 kts | 274° |
| 2026-05-04 21:48 | 33.12628 | -7.49926 | 4733 ft | 205 kts | 311° |
| 2026-05-04 21:48 | 33.13659 | -7.51007 | 4636 ft | 191 kts | 326° |
| 2026-05-04 21:48 | 33.14816 | -7.51661 | 4577 ft | 178 kts | 341° |
| 2026-05-04 21:48 | 33.15956 | -7.52069 | 4465 ft | 165 kts | 343° |
| 2026-05-04 21:49 | 33.17023 | -7.52443 | 4338 ft | 157 kts | 343° |
| 2026-05-04 21:49 | 33.18055 | -7.52807 | 4150 ft | 153 kts | 344° |
| 2026-05-04 21:49 | 33.19073 | -7.53163 | 3927 ft | 151 kts | 343° |
| 2026-05-04 21:49 | 33.20076 | -7.53509 | 3729 ft | 150 kts | 344° |
| 2026-05-04 21:50 | 33.21081 | -7.53850 | 3528 ft | 151 kts | 345° |
| 2026-05-04 21:50 | 33.22089 | -7.54193 | 3321 ft | 150 kts | 345° |
| 2026-05-04 21:50 | 33.23091 | -7.54537 | 3121 ft | 150 kts | 345° |
| 2026-05-04 21:50 | 33.24084 | -7.54878 | 2929 ft | 148 kts | 346° |
| 2026-05-04 21:51 | 33.25065 | -7.55212 | 2726 ft | 145 kts | 347° |
| 2026-05-04 21:51 | 33.26022 | -7.55539 | 2529 ft | 142 kts | 348° |
| 2026-05-04 21:51 | 33.26960 | -7.55860 | 2346 ft | 138 kts | 348° |
| 2026-05-04 21:51 | 33.27876 | -7.56173 | 2159 ft | 135 kts | 348° |
| 2026-05-04 21:52 | 33.28760 | -7.56476 | 1986 ft | 130 kts | 348° |
| 2026-05-04 21:52 | 33.29630 | -7.56773 | 1809 ft | 130 kts | 348° |
| 2026-05-04 21:52 | 33.30505 | -7.57072 | 1638 ft | 131 kts | 347° |
| 2026-05-04 21:52 | 33.31386 | -7.57375 | 1454 ft | 131 kts | 347° |
| 2026-05-04 21:53 | 33.32260 | -7.57674 | 1285 ft | 130 kts | 346° |
| 2026-05-04 21:53 | 33.33132 | -7.57974 | 1092 ft | 130 kts | 347° |
| 2026-05-04 21:53 | 33.34009 | -7.58275 | 930 ft | 134 kts | 346° |
| 2026-05-04 21:53 | 33.34897 | -7.58579 | 747 ft | 131 kts | 339° |
| 2026-05-04 21:54 | 33.35730 | -7.58864 | 657 ft | 112 kts | 344° |
| 2026-05-04 21:54 | 33.36219 | -7.59034 | 657 ft | 30 kts | 343° |
| 2026-05-04 21:54 | 33.36370 | -7.59086 | 658 ft | 50 kts | 348° |
| 2026-05-04 21:54 | 33.36647 | -7.59039 | 658 ft | 21 kts | 15° |
| 2026-05-04 21:55 | 33.36749 | -7.59004 | 659 ft | 0 kts | 19° |
| 2026-05-04 21:55 | 33.36769 | -7.58995 | 659 ft | 9 kts | 23° |
| 2026-05-04 21:55 | 33.36789 | -7.58984 | 659 ft | 0 kts | 26° |
| 2026-05-04 21:56 | 33.36858 | -7.58924 | 658 ft | 22 kts | 44° |
| 2026-05-04 21:56 | 33.36887 | -7.58883 | 658 ft | 12 kts | 55° |